createdAt,value
2019-02-18T00:00:15.420Z,84.85
2019-02-18T00:01:15.441Z,84.89
2019-02-18T00:02:15.425Z,84.47
2019-02-18T00:03:15.363Z,84.47
2019-02-18T00:04:15.366Z,84.01
2019-02-18T00:05:15.374Z,84.12
2019-02-18T00:06:15.347Z,84.33
2019-02-18T00:07:15.383Z,85.06
2019-02-18T00:08:15.314Z,85.10
2019-02-18T00:09:15.337Z,84.64
2019-02-18T00:10:15.296Z,84.89
2019-02-18T00:11:15.301Z,85.06
2019-02-18T00:12:15.265Z,85.00
2019-02-18T00:13:15.260Z,84.96
2019-02-18T00:14:15.255Z,84.27
2019-02-18T00:15:15.252Z,84.85
2019-02-18T00:16:15.285Z,84.58
2019-02-18T00:17:15.256Z,84.27
2019-02-18T00:18:15.235Z,85.00
2019-02-18T00:19:15.305Z,84.83
2019-02-18T00:20:15.180Z,85.56
2019-02-18T00:21:15.167Z,85.56
2019-02-18T00:22:15.161Z,85.46
2019-02-18T00:23:15.149Z,85.56
2019-02-18T00:24:15.158Z,85.56
2019-02-18T00:25:15.323Z,85.35
2019-02-18T00:26:15.193Z,85.46
2019-02-18T00:27:15.110Z,85.14
2019-02-18T00:28:15.152Z,85.25
2019-02-18T00:29:15.118Z,85.14
2019-02-18T00:30:15.080Z,85.35
2019-02-18T00:31:15.087Z,85.35
2019-02-18T00:32:15.205Z,85.56
2019-02-18T00:33:15.045Z,85.66
2019-02-18T00:34:15.062Z,85.14
2019-02-18T00:35:15.070Z,85.35
2019-02-18T00:36:15.003Z,85.46
2019-02-18T00:37:23.899Z,85.14
2019-02-18T00:38:15.995Z,85.56
2019-02-18T00:39:15.002Z,85.25
2019-02-18T00:40:15.000Z,85.25
2019-02-18T00:41:14.978Z,85.46
2019-02-18T00:42:14.947Z,85.46
2019-02-18T00:43:14.946Z,85.25
2019-02-18T00:44:14.917Z,85.60
2019-02-18T00:45:14.937Z,84.76
2019-02-18T00:46:14.960Z,84.66
2019-02-18T00:47:14.923Z,85.46
2019-02-18T00:48:14.882Z,85.60
2019-02-18T00:49:14.878Z,84.66
2019-02-18T00:50:14.859Z,85.60
2019-02-18T00:51:14.858Z,85.39
2019-02-18T00:52:14.838Z,85.60
2019-02-18T00:53:14.855Z,85.60
2019-02-18T00:54:14.879Z,85.46
2019-02-18T00:55:14.838Z,85.49
2019-02-18T00:56:14.786Z,85.08
2019-02-18T00:57:14.791Z,85.28
2019-02-18T00:58:14.771Z,85.60
2019-02-18T00:59:14.760Z,85.71
2019-02-18T01:00:14.759Z,85.56
2019-02-18T01:01:14.761Z,85.60
2019-02-18T01:02:14.724Z,85.49
2019-02-18T01:03:14.711Z,85.46
2019-02-18T01:04:14.749Z,85.46
2019-02-18T01:05:14.730Z,85.56
2019-02-18T01:06:14.689Z,84.76
2019-02-18T01:07:14.670Z,85.25
2019-02-18T01:08:14.663Z,85.39
2019-02-18T01:09:14.648Z,84.97
2019-02-18T01:10:14.662Z,85.49
2019-02-18T01:11:14.624Z,85.60
2019-02-18T01:12:14.617Z,85.28
2019-02-18T01:13:14.639Z,85.39
2019-02-18T01:14:14.604Z,85.91
2019-02-18T01:15:14.720Z,85.81
2019-02-18T01:16:14.586Z,85.81
2019-02-18T01:17:14.628Z,85.71
2019-02-18T01:18:14.578Z,85.39
2019-02-18T01:19:14.539Z,85.18
2019-02-18T01:20:14.546Z,85.49
2019-02-18T01:21:14.516Z,85.60
2019-02-18T01:22:14.588Z,85.49
2019-02-18T01:23:14.509Z,84.86
2019-02-18T01:24:14.503Z,85.49
2019-02-18T01:25:14.496Z,85.39
2019-02-18T01:26:14.526Z,85.60
2019-02-18T01:27:14.446Z,85.22
2019-02-18T01:28:14.438Z,85.53
2019-02-18T01:29:14.509Z,85.64
2019-02-18T01:30:14.475Z,85.42
2019-02-18T01:31:14.413Z,84.91
2019-02-18T01:32:14.405Z,84.86
2019-02-18T01:33:14.460Z,84.69
2019-02-18T01:34:14.381Z,84.91
2019-02-18T01:35:14.395Z,85.01
2019-02-18T01:36:14.350Z,84.80
2019-02-18T01:37:14.373Z,85.32
2019-02-18T01:38:14.334Z,85.74
2019-02-18T01:39:14.334Z,85.53
2019-02-18T01:40:14.447Z,85.53
2019-02-18T01:41:14.309Z,85.32
2019-02-18T01:42:14.293Z,85.18
2019-02-18T01:43:14.275Z,85.64
2019-02-18T01:44:14.262Z,84.91
2019-02-18T01:45:14.293Z,84.80
2019-02-18T01:46:14.300Z,84.69
2019-02-18T01:47:14.232Z,84.80
2019-02-18T01:48:14.234Z,85.01
2019-02-18T01:49:14.219Z,85.47
2019-02-18T01:50:14.202Z,85.32
2019-02-18T01:51:14.225Z,85.22
2019-02-18T01:52:14.185Z,85.32
2019-02-18T01:53:14.175Z,84.59
2019-02-18T01:54:14.158Z,84.80
2019-02-18T01:55:14.156Z,85.05
2019-02-18T01:56:14.141Z,84.80
2019-02-18T01:57:14.138Z,85.53
2019-02-18T01:58:14.241Z,85.32
2019-02-18T01:59:14.129Z,85.53
2019-02-18T02:00:14.122Z,85.64
2019-02-18T02:01:14.122Z,85.53
2019-02-18T02:02:14.072Z,85.57
2019-02-18T02:03:14.091Z,85.53
2019-02-18T02:04:14.061Z,85.78
2019-02-18T02:05:14.098Z,85.53
2019-02-18T02:06:14.045Z,85.22
2019-02-18T02:07:14.037Z,85.42
2019-02-18T02:08:14.008Z,85.68
2019-02-18T02:09:14.027Z,85.68
2019-02-18T02:10:13.994Z,85.22
2019-02-18T02:11:14.009Z,85.22
2019-02-18T02:12:13.970Z,85.64
2019-02-18T02:13:13.971Z,85.64
2019-02-18T02:14:14.006Z,84.52
2019-02-18T02:15:13.935Z,85.68
2019-02-18T02:16:13.938Z,85.74
2019-02-18T02:17:13.923Z,85.53
2019-02-18T02:18:13.902Z,85.53
2019-02-18T02:19:13.891Z,85.47
2019-02-18T02:20:13.874Z,84.59
2019-02-18T02:21:13.884Z,84.84
2019-02-18T02:22:13.915Z,84.91
2019-02-18T02:23:13.887Z,85.25
2019-02-18T02:24:13.859Z,85.57
2019-02-18T02:25:13.823Z,85.15
2019-02-18T02:26:14.258Z,85.25
2019-02-18T02:27:13.802Z,85.47
2019-02-18T02:28:13.814Z,85.36
2019-02-18T02:29:13.781Z,85.47
2019-02-18T02:30:13.769Z,85.68
2019-02-18T02:31:13.892Z,85.47
2019-02-18T02:32:13.767Z,85.25
2019-02-18T02:33:13.749Z,85.36
2019-02-18T02:34:13.726Z,85.57
2019-02-18T02:35:13.717Z,85.57
2019-02-18T02:36:13.737Z,85.57
2019-02-18T02:37:13.706Z,85.47
2019-02-18T02:38:13.697Z,85.68
2019-02-18T02:39:13.692Z,85.78
2019-02-18T02:40:13.681Z,85.78
2019-02-18T02:41:13.673Z,85.36
2019-02-18T02:42:21.662Z,85.08
2019-02-18T02:43:13.633Z,85.08
2019-02-18T02:44:13.623Z,85.05
2019-02-18T02:45:13.639Z,85.40
2019-02-18T02:46:13.602Z,85.68
2019-02-18T02:47:13.613Z,85.19
2019-02-18T02:48:13.615Z,85.72
2019-02-18T02:49:13.602Z,85.40
2019-02-18T02:50:13.635Z,84.88
2019-02-18T02:51:13.567Z,85.08
2019-02-18T02:52:13.535Z,84.98
2019-02-18T02:53:13.587Z,84.88
2019-02-18T02:54:13.578Z,85.08
2019-02-18T02:55:13.516Z,85.19
2019-02-18T02:56:13.496Z,84.98
2019-02-18T02:57:13.507Z,85.40
2019-02-18T02:58:13.481Z,85.08
2019-02-18T02:59:13.454Z,84.98
2019-02-18T03:00:13.465Z,85.19
2019-02-18T03:01:13.437Z,84.98
2019-02-18T03:02:13.451Z,84.98
2019-02-18T03:03:13.422Z,85.19
2019-02-18T03:04:13.428Z,85.08
2019-02-18T03:05:13.401Z,85.40
2019-02-18T03:06:13.394Z,85.50
2019-02-18T03:07:13.383Z,85.30
2019-02-18T03:08:20.493Z,84.98
2019-02-18T03:09:14.405Z,85.19
2019-02-18T03:10:13.349Z,85.08
2019-02-18T03:11:13.330Z,85.30
2019-02-18T03:12:13.357Z,84.45
2019-02-18T03:13:13.347Z,84.77
2019-02-18T03:14:13.314Z,85.33
2019-02-18T03:15:13.299Z,85.44
2019-02-18T03:16:13.286Z,84.98
2019-02-18T03:17:13.281Z,85.72
2019-02-18T03:18:13.336Z,85.02
2019-02-18T03:19:13.265Z,85.23
2019-02-18T03:20:13.245Z,85.19
2019-02-18T03:21:13.223Z,85.02
2019-02-18T03:22:13.268Z,85.23
2019-02-18T03:23:13.215Z,84.91
2019-02-18T03:24:13.201Z,85.02
2019-02-18T03:25:13.192Z,85.23
2019-02-18T03:26:13.199Z,85.86
2019-02-18T03:27:13.170Z,85.86
2019-02-18T03:28:13.156Z,85.75
2019-02-18T03:29:13.138Z,85.75
2019-02-18T03:30:13.250Z,85.44
2019-02-18T03:31:13.135Z,84.81
2019-02-18T03:32:13.124Z,85.27
2019-02-18T03:33:13.117Z,85.23
2019-02-18T03:34:13.112Z,85.65
2019-02-18T03:35:13.080Z,85.44
2019-02-18T03:36:13.069Z,85.33
2019-02-18T03:37:13.086Z,85.55
2019-02-18T03:38:13.042Z,85.65
2019-02-18T03:39:13.033Z,85.65
2019-02-18T03:40:13.025Z,85.75
2019-02-18T03:41:13.028Z,85.27
2019-02-18T03:42:13.010Z,85.58
2019-02-18T03:43:13.044Z,85.23
2019-02-18T03:44:13.060Z,85.79
2019-02-18T03:45:12.987Z,85.16
2019-02-18T03:46:12.991Z,85.69
2019-02-18T03:47:12.953Z,85.69
2019-02-18T03:48:12.949Z,85.79
2019-02-18T03:49:12.989Z,85.58
2019-02-18T03:50:12.918Z,85.73
2019-02-18T03:51:12.908Z,85.31
2019-02-18T03:52:12.911Z,85.73
2019-02-18T03:53:12.901Z,85.48
2019-02-18T03:54:12.899Z,85.90
2019-02-18T03:55:12.938Z,85.58
2019-02-18T03:56:12.860Z,85.41
2019-02-18T03:57:12.879Z,85.06
2019-02-18T03:58:12.841Z,85.79
2019-02-18T03:59:12.827Z,85.37
2019-02-18T04:00:12.861Z,85.69
2019-02-18T04:01:12.802Z,85.52
2019-02-18T04:02:12.789Z,85.48
2019-02-18T04:03:12.793Z,85.79
2019-02-18T04:04:12.766Z,85.58
2019-02-18T04:05:12.767Z,85.48
2019-02-18T04:06:12.753Z,85.58
2019-02-18T04:07:12.742Z,85.69
2019-02-18T04:08:12.756Z,85.37
2019-02-18T04:09:12.727Z,84.95
2019-02-18T04:10:12.742Z,84.95
2019-02-18T04:11:12.738Z,85.27
2019-02-18T04:12:12.681Z,85.69
2019-02-18T04:13:12.691Z,84.74
2019-02-18T04:14:12.683Z,84.84
2019-02-18T04:15:12.652Z,84.36
2019-02-18T04:16:12.672Z,84.53
2019-02-18T04:17:12.655Z,84.57
2019-02-18T04:18:12.621Z,84.89
2019-02-18T04:19:12.625Z,85.20
2019-02-18T04:20:12.612Z,84.89
2019-02-18T04:21:12.590Z,84.99
2019-02-18T04:22:12.587Z,85.20
2019-02-18T04:23:12.561Z,83.83
2019-02-18T04:24:12.561Z,85.20
2019-02-18T04:25:12.561Z,84.99
2019-02-18T04:26:12.547Z,84.99
2019-02-18T04:27:12.540Z,84.99
2019-02-18T04:28:12.525Z,84.89
2019-02-18T04:29:12.501Z,85.31
2019-02-18T04:30:13.736Z,84.67
2019-02-18T04:31:12.480Z,85.31
2019-02-18T04:32:12.468Z,84.05
2019-02-18T04:33:12.469Z,84.25
2019-02-18T04:34:12.460Z,84.36
2019-02-18T04:35:12.461Z,83.83
2019-02-18T04:36:12.511Z,83.73
2019-02-18T04:37:12.445Z,83.94
2019-02-18T04:38:12.410Z,83.83
2019-02-18T04:39:12.404Z,84.47
2019-02-18T04:40:12.432Z,84.15
2019-02-18T04:41:12.388Z,84.15
2019-02-18T04:42:12.391Z,83.83
2019-02-18T04:43:12.370Z,84.05
2019-02-18T04:44:12.357Z,83.83
2019-02-18T04:45:12.346Z,83.83
2019-02-18T04:46:12.316Z,84.57
2019-02-18T04:47:12.308Z,84.25
2019-02-18T04:48:12.321Z,84.47
2019-02-18T04:49:12.320Z,84.25
2019-02-18T04:50:12.282Z,83.83
2019-02-18T04:51:12.268Z,83.73
2019-02-18T04:52:12.267Z,83.76
2019-02-18T04:53:12.250Z,83.76
2019-02-18T04:54:12.256Z,84.40
2019-02-18T04:55:12.228Z,84.71
2019-02-18T04:56:12.219Z,84.50
2019-02-18T04:57:12.213Z,84.82
2019-02-18T04:58:12.196Z,85.77
2019-02-18T04:59:12.223Z,85.35
2019-02-18T05:00:12.188Z,85.66
2019-02-18T05:01:12.172Z,85.55
2019-02-18T05:02:12.151Z,85.87
2019-02-18T05:03:12.159Z,85.55
2019-02-18T05:04:14.101Z,85.80
2019-02-18T05:05:12.153Z,85.70
2019-02-18T05:06:12.195Z,85.60
2019-02-18T05:07:12.610Z,86.02
2019-02-18T05:08:12.094Z,86.40
2019-02-18T05:09:12.154Z,86.51
2019-02-18T05:10:12.087Z,85.87
2019-02-18T05:11:12.068Z,85.38
2019-02-18T05:12:12.054Z,85.55
2019-02-18T05:13:12.049Z,85.87
2019-02-18T05:14:12.050Z,86.51
2019-02-18T05:15:12.014Z,86.22
2019-02-18T05:16:12.010Z,85.87
2019-02-18T05:17:11.992Z,86.19
2019-02-18T05:18:11.985Z,85.55
2019-02-18T05:19:12.017Z,85.77
2019-02-18T05:20:11.998Z,85.45
2019-02-18T05:21:11.972Z,85.66
2019-02-18T05:22:11.994Z,85.70
2019-02-18T05:23:12.649Z,85.87
2019-02-18T05:24:12.209Z,85.55
2019-02-18T05:25:12.994Z,85.55
2019-02-18T05:26:11.931Z,85.55
2019-02-18T05:27:11.886Z,85.55
2019-02-18T05:28:11.884Z,85.87
2019-02-18T05:29:11.909Z,85.91
2019-02-18T05:30:11.858Z,85.60
2019-02-18T05:31:11.855Z,85.80
2019-02-18T05:32:11.842Z,85.80
2019-02-18T05:33:11.821Z,85.80
2019-02-18T05:34:11.889Z,85.70
2019-02-18T05:35:11.922Z,85.80
2019-02-18T05:36:11.791Z,85.80
2019-02-18T05:37:11.803Z,85.70
2019-02-18T05:38:11.781Z,85.60
2019-02-18T05:39:17.984Z,85.66
2019-02-18T05:40:12.753Z,85.70
2019-02-18T05:41:11.748Z,85.80
2019-02-18T05:42:11.800Z,85.80
2019-02-18T05:43:11.715Z,85.80
2019-02-18T05:44:11.714Z,85.91
2019-02-18T05:45:11.719Z,85.80
2019-02-18T05:46:11.689Z,85.77
2019-02-18T05:47:11.674Z,85.70
2019-02-18T05:48:11.712Z,85.91
2019-02-18T05:49:11.705Z,85.45
2019-02-18T05:50:11.650Z,85.45
2019-02-18T05:51:11.635Z,85.80
2019-02-18T05:52:11.764Z,85.70
2019-02-18T05:53:11.612Z,85.80
2019-02-18T05:54:11.633Z,85.80
2019-02-18T05:55:11.590Z,85.38
2019-02-18T05:56:11.594Z,85.38
2019-02-18T05:57:11.564Z,85.38
2019-02-18T05:58:11.554Z,85.70
2019-02-18T05:59:11.576Z,85.91
2019-02-18T06:00:11.545Z,85.49
2019-02-18T06:01:11.524Z,86.44
2019-02-18T06:02:11.513Z,85.49
2019-02-18T06:03:11.505Z,85.80
2019-02-18T06:04:11.501Z,85.91
2019-02-18T06:05:11.572Z,85.80
2019-02-18T06:06:11.470Z,85.53
2019-02-18T06:07:11.460Z,85.80
2019-02-18T06:08:11.453Z,86.22
2019-02-18T06:09:11.441Z,86.22
2019-02-18T06:10:11.466Z,86.22
2019-02-18T06:11:11.444Z,86.54
2019-02-18T06:12:11.424Z,86.33
2019-02-18T06:13:11.403Z,86.22
2019-02-18T06:14:11.393Z,86.33
2019-02-18T06:15:11.418Z,86.33
2019-02-18T06:16:11.368Z,86.44
2019-02-18T06:17:11.379Z,86.33
2019-02-18T06:18:11.350Z,85.91
2019-02-18T06:19:11.331Z,85.74
2019-02-18T06:20:11.352Z,86.12
2019-02-18T06:21:11.697Z,86.05
2019-02-18T06:22:11.808Z,85.60
2019-02-18T06:23:11.382Z,85.80
2019-02-18T06:24:11.605Z,85.95
2019-02-18T06:25:11.380Z,86.16
2019-02-18T06:26:11.258Z,86.58
2019-02-18T06:27:11.264Z,86.65
2019-02-18T06:28:11.251Z,87.00
2019-02-18T06:29:11.248Z,86.65
2019-02-18T06:30:11.234Z,86.44
2019-02-18T06:31:11.214Z,86.12
2019-02-18T06:32:11.214Z,86.65
2019-02-18T06:33:11.189Z,86.22
2019-02-18T06:34:11.180Z,86.44
2019-02-18T06:35:11.202Z,85.70
2019-02-18T06:36:11.154Z,86.22
2019-02-18T06:37:11.147Z,86.44
2019-02-18T06:38:11.134Z,86.12
2019-02-18T06:39:11.141Z,86.33
2019-02-18T06:40:11.128Z,86.22
2019-02-18T06:41:11.111Z,85.70
2019-02-18T06:42:11.393Z,85.80
2019-02-18T06:43:11.080Z,85.49
2019-02-18T06:44:11.102Z,85.70
2019-02-18T06:45:12.013Z,85.80
2019-02-18T06:46:11.050Z,85.80
2019-02-18T06:47:11.036Z,85.91
2019-02-18T06:48:11.028Z,86.02
2019-02-18T06:49:11.030Z,85.13
2019-02-18T06:50:11.041Z,85.66
2019-02-18T06:51:11.000Z,86.29
2019-02-18T06:52:10.989Z,86.19
2019-02-18T06:53:10.974Z,86.08
2019-02-18T06:54:10.967Z,86.40
2019-02-18T06:55:10.956Z,86.19
2019-02-18T06:56:11.127Z,86.25
2019-02-18T06:57:10.938Z,85.77
2019-02-18T06:58:12.650Z,86.25
2019-02-18T06:59:10.942Z,85.83
2019-02-18T07:00:10.907Z,86.25
2019-02-18T07:01:10.902Z,86.15
2019-02-18T07:02:10.937Z,86.43
2019-02-18T07:03:10.902Z,86.46
2019-02-18T07:04:10.862Z,86.32
2019-02-18T07:05:10.851Z,86.21
2019-02-18T07:06:10.838Z,86.43
2019-02-18T07:07:10.827Z,86.43
2019-02-18T07:08:10.813Z,86.32
2019-02-18T07:09:10.818Z,85.48
2019-02-18T07:10:10.803Z,86.11
2019-02-18T07:11:10.805Z,86.91
2019-02-18T07:12:10.777Z,86.60
2019-02-18T07:13:10.767Z,86.80
2019-02-18T07:14:10.755Z,86.60
2019-02-18T07:15:10.805Z,86.60
2019-02-18T07:16:10.745Z,86.35
2019-02-18T07:17:10.728Z,85.61
2019-02-18T07:18:10.708Z,86.24
2019-02-18T07:19:10.719Z,85.61
2019-02-18T07:20:10.685Z,86.24
2019-02-18T07:21:10.686Z,86.62
2019-02-18T07:22:10.680Z,87.57
2019-02-18T07:23:10.654Z,87.46
2019-02-18T07:24:10.644Z,87.04
2019-02-18T07:25:10.641Z,87.15
2019-02-18T07:26:10.625Z,87.04
2019-02-18T07:27:10.626Z,86.79
2019-02-18T07:28:10.600Z,87.95
2019-02-18T07:29:10.591Z,87.77
2019-02-18T07:30:10.579Z,88.16
2019-02-18T07:31:10.569Z,87.84
2019-02-18T07:32:10.565Z,88.05
2019-02-18T07:33:10.548Z,88.05
2019-02-18T07:34:10.536Z,88.16
2019-02-18T07:35:10.523Z,88.26
2019-02-18T07:36:10.517Z,87.70
2019-02-18T07:37:10.512Z,87.49
2019-02-18T07:38:10.492Z,87.87
2019-02-18T07:39:10.536Z,88.29
2019-02-18T07:40:10.471Z,88.07
2019-02-18T07:41:10.459Z,87.76
2019-02-18T07:42:10.456Z,88.18
2019-02-18T07:43:10.440Z,87.51
2019-02-18T07:44:10.428Z,87.62
2019-02-18T07:45:10.413Z,87.62
2019-02-18T07:46:10.479Z,87.30
2019-02-18T07:47:10.403Z,87.26
2019-02-18T07:48:10.383Z,87.26
2019-02-18T07:49:10.372Z,87.16
2019-02-18T07:50:19.999Z,86.95
2019-02-18T07:51:11.352Z,86.95
2019-02-18T07:52:10.349Z,86.74
2019-02-18T07:53:10.345Z,86.11
2019-02-18T07:54:10.465Z,86.28
2019-02-18T07:55:10.309Z,85.65
2019-02-18T07:56:10.298Z,85.75
2019-02-18T07:57:10.297Z,85.13
2019-02-18T07:58:10.276Z,85.24
2019-02-18T07:59:10.273Z,84.88
2019-02-18T08:00:10.261Z,84.67
2019-02-18T08:01:10.240Z,85.51
2019-02-18T08:02:10.303Z,85.41
2019-02-18T08:03:10.217Z,84.95
2019-02-18T08:04:10.209Z,85.16
2019-02-18T08:05:10.207Z,85.26
2019-02-18T08:06:10.189Z,85.26
2019-02-18T08:07:10.183Z,85.16
2019-02-18T08:08:10.176Z,85.36
2019-02-18T08:09:10.152Z,83.44
2019-02-18T08:10:12.357Z,83.34
2019-02-18T08:11:10.144Z,82.54
2019-02-18T08:12:10.121Z,83.06
2019-02-18T08:13:10.125Z,82.19
2019-02-18T08:14:10.101Z,80.93
2019-02-18T08:15:10.091Z,81.46
2019-02-18T08:16:10.077Z,80.90
2019-02-18T08:17:10.066Z,81.11
2019-02-18T08:18:10.102Z,81.21
2019-02-18T08:19:10.043Z,80.38
2019-02-18T08:20:10.037Z,80.58
2019-02-18T08:21:10.021Z,80.27
2019-02-18T08:22:10.014Z,79.75
2019-02-18T08:23:10.016Z,79.71
2019-02-18T08:24:09.987Z,79.50
2019-02-18T08:25:09.977Z,79.61
2019-02-18T08:26:09.971Z,79.19
2019-02-18T08:27:09.955Z,80.02
2019-02-18T08:28:10.052Z,79.92
2019-02-18T08:29:10.075Z,79.88
2019-02-18T08:30:10.005Z,79.36
2019-02-18T08:31:09.971Z,79.88
2019-02-18T08:32:10.920Z,79.22
2019-02-18T08:33:10.123Z,77.69
2019-02-18T08:34:09.913Z,77.45
2019-02-18T08:35:09.896Z,77.86
2019-02-18T08:36:09.920Z,77.66
2019-02-18T08:37:09.880Z,77.86
2019-02-18T08:38:09.907Z,77.51
2019-02-18T08:39:09.852Z,76.79
2019-02-18T08:40:09.821Z,76.26
2019-02-18T08:41:09.816Z,76.02
2019-02-18T08:42:09.808Z,76.12
2019-02-18T08:43:09.807Z,76.54
2019-02-18T08:44:09.792Z,75.50
2019-02-18T08:45:09.785Z,75.05
2019-02-18T08:46:09.755Z,75.36
2019-02-18T08:47:09.786Z,75.05
2019-02-18T08:48:09.735Z,74.60
2019-02-18T08:49:09.739Z,73.83
2019-02-18T08:50:09.718Z,74.66
2019-02-18T08:51:09.703Z,74.56
2019-02-18T08:52:09.683Z,73.77
2019-02-18T08:53:09.673Z,72.52
2019-02-18T08:54:09.675Z,70.75
2019-02-18T08:55:09.651Z,69.43
2019-02-18T08:56:09.646Z,69.30
2019-02-18T08:57:09.639Z,69.34
2019-02-18T08:58:09.629Z,67.61
2019-02-18T08:59:11.124Z,63.28
2019-02-18T09:00:09.599Z,61.25
2019-02-18T09:01:09.587Z,59.83
2019-02-18T09:02:09.579Z,58.74
2019-02-18T09:03:09.569Z,57.21
2019-02-18T09:04:09.557Z,55.33
2019-02-18T09:05:09.649Z,53.94
2019-02-18T09:06:09.547Z,53.58
2019-02-18T09:07:09.524Z,51.45
2019-02-18T09:08:09.514Z,49.69
2019-02-18T09:09:09.522Z,49.87
2019-02-18T09:10:09.500Z,48.21
2019-02-18T09:11:09.501Z,47.88
2019-02-18T09:12:09.578Z,46.93
2019-02-18T09:13:09.458Z,47.34
2019-02-18T09:14:09.458Z,45.37
2019-02-18T09:15:09.437Z,46.07
2019-02-18T09:16:09.430Z,45.84
2019-02-18T09:17:09.443Z,44.18
2019-02-18T09:18:09.406Z,45.00
2019-02-18T09:19:09.453Z,45.18
2019-02-18T09:20:09.380Z,44.17
2019-02-18T09:21:09.370Z,43.84
2019-02-18T09:22:09.363Z,43.06
2019-02-18T09:23:09.352Z,44.51
2019-02-18T09:24:09.349Z,45.65
2019-02-18T09:25:09.344Z,44.55
2019-02-18T09:26:09.315Z,45.57
2019-02-18T09:27:09.307Z,45.89
2019-02-18T09:28:09.297Z,46.11
2019-02-18T09:29:09.298Z,46.31
2019-02-18T09:30:09.395Z,46.91
2019-02-18T09:31:09.266Z,45.56
2019-02-18T09:32:09.271Z,43.90
2019-02-18T09:33:09.242Z,44.79
2019-02-18T09:34:11.189Z,43.12
2019-02-18T09:35:14.118Z,43.10
2019-02-18T09:36:09.240Z,43.59
2019-02-18T09:37:09.199Z,41.12
2019-02-18T09:38:09.190Z,41.92
2019-02-18T09:39:09.178Z,40.06
2019-02-18T09:40:09.176Z,39.94
2019-02-18T09:41:09.155Z,39.62
2019-02-18T09:42:09.144Z,39.19
2019-02-18T09:43:09.135Z,37.54
2019-02-18T09:44:09.137Z,37.43
2019-02-18T09:45:09.120Z,37.41
2019-02-18T09:46:09.100Z,37.08
2019-02-18T09:47:09.092Z,35.55
2019-02-18T09:48:09.095Z,35.55
2019-02-18T09:49:09.082Z,36.25
2019-02-18T09:50:09.059Z,36.22
2019-02-18T09:51:09.051Z,35.09
2019-02-18T09:52:09.051Z,33.84
2019-02-18T09:53:09.027Z,34.55
2019-02-18T09:54:09.301Z,34.45
2019-02-18T09:55:09.012Z,35.07
2019-02-18T09:56:08.999Z,34.38
2019-02-18T09:57:08.986Z,35.09
2019-02-18T09:58:08.980Z,35.00
2019-02-18T09:59:08.968Z,35.21
2019-02-18T10:00:08.959Z,36.04
2019-02-18T10:01:08.946Z,35.95
2019-02-18T10:02:08.933Z,36.16
2019-02-18T10:03:08.922Z,35.14
2019-02-18T10:04:08.912Z,35.55
2019-02-18T10:05:08.912Z,34.63
2019-02-18T10:06:08.892Z,35.63
2019-02-18T10:07:08.885Z,34.61
2019-02-18T10:08:08.870Z,34.50
2019-02-18T10:09:08.863Z,33.50
2019-02-18T10:10:08.853Z,35.41
2019-02-18T10:11:08.839Z,35.61
2019-02-18T10:12:18.045Z,34.09
2019-02-18T10:13:09.815Z,34.60
2019-02-18T10:14:08.811Z,34.39
2019-02-18T10:15:08.812Z,35.21
2019-02-18T10:16:08.786Z,34.48
2019-02-18T10:17:08.788Z,33.74
2019-02-18T10:18:09.237Z,33.74
2019-02-18T10:19:08.752Z,33.12
2019-02-18T10:20:08.754Z,31.99
2019-02-18T10:21:08.733Z,30.47
2019-02-18T10:22:08.722Z,32.50
2019-02-18T10:23:08.713Z,31.15
2019-02-18T10:24:08.710Z,31.55
2019-02-18T10:25:08.700Z,30.24
2019-02-18T10:26:08.682Z,30.94
2019-02-18T10:27:08.679Z,33.07
2019-02-18T10:28:08.688Z,30.66
2019-02-18T10:29:08.654Z,32.59
2019-02-18T10:30:08.653Z,31.35
2019-02-18T10:31:08.769Z,31.54
2019-02-18T10:32:08.619Z,30.40
2019-02-18T10:33:08.609Z,30.09
2019-02-18T10:34:08.596Z,30.51
2019-02-18T10:35:08.682Z,30.21
2019-02-18T10:36:08.578Z,29.30
2019-02-18T10:37:08.568Z,29.39
2019-02-18T10:38:08.667Z,29.57
2019-02-18T10:39:08.551Z,28.67
2019-02-18T10:40:08.587Z,29.17
2019-02-18T10:41:08.525Z,28.98
2019-02-18T10:42:08.527Z,29.17
2019-02-18T10:43:08.538Z,29.99
2019-02-18T10:44:08.500Z,29.08
2019-02-18T10:45:08.523Z,30.09
2019-02-18T10:46:08.545Z,29.28
2019-02-18T10:47:08.464Z,29.49
2019-02-18T10:48:08.454Z,30.28
2019-02-18T10:49:18.945Z,28.97
2019-02-18T10:50:09.450Z,28.38
2019-02-18T10:51:08.426Z,27.36
2019-02-18T10:52:08.419Z,27.44
2019-02-18T10:53:08.509Z,29.26
2019-02-18T10:54:08.402Z,29.36
2019-02-18T10:55:08.395Z,28.87
2019-02-18T10:56:08.385Z,28.38
2019-02-18T10:57:08.374Z,29.57
2019-02-18T10:58:08.375Z,28.56
2019-02-18T10:59:08.365Z,28.67
2019-02-18T11:00:08.338Z,29.28
2019-02-18T11:01:08.345Z,29.08
2019-02-18T11:02:08.325Z,30.18
2019-02-18T11:03:08.329Z,28.35
2019-02-18T11:04:08.299Z,29.14
2019-02-18T11:05:08.294Z,29.33
2019-02-18T11:06:09.324Z,28.72
2019-02-18T11:07:08.265Z,28.72
2019-02-18T11:08:08.260Z,29.04
2019-02-18T11:09:08.275Z,29.35
2019-02-18T11:10:08.236Z,28.65
2019-02-18T11:11:16.698Z,30.18
2019-02-18T11:12:09.217Z,30.28
2019-02-18T11:13:08.204Z,30.67
2019-02-18T11:14:08.194Z,29.57
2019-02-18T11:15:08.195Z,29.96
2019-02-18T11:16:08.207Z,28.74
2019-02-18T11:17:08.169Z,29.44
2019-02-18T11:18:08.152Z,27.62
2019-02-18T11:19:08.144Z,29.13
2019-02-18T11:20:08.135Z,28.42
2019-02-18T11:21:08.130Z,27.00
2019-02-18T11:22:08.117Z,28.01
2019-02-18T11:23:08.114Z,27.10
2019-02-18T11:24:08.101Z,27.29
2019-02-18T11:25:08.086Z,27.50
2019-02-18T11:26:08.086Z,27.72
2019-02-18T11:27:08.072Z,28.83
2019-02-18T11:28:08.062Z,27.61
2019-02-18T11:29:08.060Z,28.00
2019-02-18T11:30:08.035Z,27.69
2019-02-18T11:31:08.032Z,27.80
2019-02-18T11:32:08.015Z,27.88
2019-02-18T11:33:08.013Z,27.78
2019-02-18T11:34:07.996Z,27.48
2019-02-18T11:35:07.987Z,27.06
2019-02-18T11:36:07.981Z,27.78
2019-02-18T11:37:07.966Z,27.16
2019-02-18T11:38:08.000Z,26.34
2019-02-18T11:39:07.986Z,24.51
2019-02-18T11:40:07.940Z,23.88
2019-02-18T11:41:07.932Z,23.88
2019-02-18T11:42:07.947Z,24.58
2019-02-18T11:43:07.918Z,24.08
2019-02-18T11:44:07.903Z,24.49
2019-02-18T11:45:07.916Z,23.58
2019-02-18T11:46:07.886Z,24.99
2019-02-18T11:47:07.872Z,23.47
2019-02-18T11:48:07.868Z,23.36
2019-02-18T11:49:07.870Z,23.44
2019-02-18T11:50:07.842Z,23.03
2019-02-18T11:51:07.848Z,23.73
2019-02-18T11:52:07.825Z,23.25
2019-02-18T11:53:07.818Z,23.76
2019-02-18T11:54:07.807Z,23.97
2019-02-18T11:55:07.808Z,24.08
2019-02-18T11:56:08.003Z,23.79
2019-02-18T11:57:07.810Z,24.19
2019-02-18T11:58:07.768Z,23.77
2019-02-18T11:59:07.761Z,23.58
2019-02-18T12:00:07.749Z,24.10
2019-02-18T12:01:07.758Z,25.12
2019-02-18T12:02:07.735Z,24.94
2019-02-18T12:03:12.269Z,25.24
2019-02-18T12:04:07.725Z,25.65
2019-02-18T12:05:07.714Z,25.87
2019-02-18T12:06:07.707Z,26.08
2019-02-18T12:07:07.690Z,26.08
2019-02-18T12:08:07.672Z,26.09
2019-02-18T12:09:07.664Z,24.98
2019-02-18T12:10:07.726Z,27.03
2019-02-18T12:11:07.659Z,27.64
2019-02-18T12:12:07.635Z,27.56
2019-02-18T12:13:07.625Z,27.97
2019-02-18T12:14:07.643Z,28.39
2019-02-18T12:15:07.609Z,27.81
2019-02-18T12:16:07.613Z,29.22
2019-02-18T12:17:07.590Z,28.43
2019-02-18T12:18:07.580Z,30.18
2019-02-18T12:19:07.572Z,30.70
2019-02-18T12:20:07.583Z,30.62
2019-02-18T12:21:07.563Z,30.63
2019-02-18T12:22:07.540Z,31.15
2019-02-18T12:23:07.529Z,31.37
2019-02-18T12:24:07.519Z,32.68
2019-02-18T12:25:07.509Z,31.05
2019-02-18T12:26:07.514Z,31.87
2019-02-18T12:27:07.507Z,33.21
2019-02-18T12:28:07.487Z,33.94
2019-02-18T12:29:07.472Z,35.16
2019-02-18T12:30:07.458Z,35.48
2019-02-18T12:31:07.449Z,34.46
2019-02-18T12:32:07.459Z,34.36
2019-02-18T12:33:07.434Z,33.54
2019-02-18T12:34:07.417Z,34.16
2019-02-18T12:35:07.412Z,33.34
2019-02-18T12:36:07.410Z,33.36
2019-02-18T12:37:07.395Z,34.58
2019-02-18T12:38:07.380Z,34.58
2019-02-18T12:39:07.415Z,34.27
2019-02-18T12:40:07.357Z,34.17
2019-02-18T12:41:07.387Z,35.80
2019-02-18T12:42:07.337Z,36.02
2019-02-18T12:43:08.069Z,36.12
2019-02-18T12:44:07.313Z,35.61
2019-02-18T12:45:07.356Z,35.61
2019-02-18T12:46:15.488Z,35.83
2019-02-18T12:47:08.287Z,35.54
2019-02-18T12:48:07.308Z,36.05
2019-02-18T12:49:07.257Z,35.75
2019-02-18T12:50:07.245Z,35.54
2019-02-18T12:51:07.234Z,36.05
2019-02-18T12:52:07.246Z,35.44